32TX weather

Hinson Airport
Kenney, Texas, United States

Public forecast

Using degrees Fahrenheit for public forecast. Weather courtesy of forecast.io.

METAR (pilot weather report)

Closest report is Brenham Municipal Airport, 9.7 nm (18.0 km) N. Retrieved 2019/09/18 08:35 UTC (0 seconds ago):

K11R 180835Z AUTO 30005KT 3SM DZ OVC011 24/24 A2984 RMK AO2 LTG DSNT SE T02400240

TAF (pilot weather forecast)

Closest forecast is Easterwood Field, 31.9 nm (59.0 km) N. Retrieved 2019/09/18 06:24 UTC (2 hours ago):

TAF KCLL 180520Z 1806/1906 03009KT P6SM VCSH FEW020 FM180900 04004KT P6SM VCSH SCT008 BKN025 OVC060 FM181500 02007KT P6SM -RA VCSH BKN010 OVC015 FM181900 34006KT P6SM VCSH OVC025 TEMPO 1819/1823 SHRA OVC012 FM190100 33005KT 4SM -RA VCSH OVC025